Qaarsut

KL  EN  DA
ASIAQ
Weather Now GREENLAND SURVEY
Updated [WGT/WGST] Temperature [°C] Wind [m/s] Air pressure [hPa] Relative humidity [%] Precipitation [mm]
Present Wind chill Speed Max
17.01 13:00-8,5-19,012,0 ⇖14,7996610,3
17.01 12:00-8,4-17,99,3 ⇖11,9996540,1
17.01 11:00-9,2-18,68,7 ⇖10,3996490,1
17.01 10:00-8,6-18,710,6 ⇐12,0996510,0
17.01 09:00-10,7-20,58,4 ⇖9,8995540,0
17.01 08:00-9,5-18,98,4 ⇖10,2995490,0
17.01 07:00-9,6-18,37,1 ⇐8,3996480,0
17.01 06:00-10,8-19,76,7 ⇖8,1996510,0
17.01 05:00-9,6-18,67,5 ⇖8,9996470,0
17.01 04:00-10,6-18,96,0 ⇖7,5997510,0
17.01 03:00-10,4-19,06,6 ⇖8,2997510,0
17.01 02:00-10,7-19,66,9 ⇖7,8997510,0
17.01 01:00-10,8-19,05,8 ⇖7,7998530,0
17.01 00:00-9,8-18,06,1 ⇖8,1999480,0
16.01 23:00-11,6-19,85,6 ⇖6,51000590,0
16.01 22:00-11,1-18,54,6 ⇖5,61000590,2
16.01 21:00-11,6-19,04,6 ⇖6,31001620,0
16.01 20:00-11,7-18,63,9 ⇖5,41001650,1
16.01 19:00-10,1-16,53,8 ⇖6,21002530,1
16.01 18:00-11,6-19,14,7 ⇖6,21002580,1
16.01 17:00-10,7-17,64,2 ⇖5,71002570,1
16.01 16:00-10,4-17,04,0 ⇑5,51002530,0
16.01 15:00-10,1-15,22,7 ⇖4,31002530,3
16.01 14:00-9,6-15,23,1 ⇖5,31002520,0
16.01 13:00-9,8-14,52,4 ⇖3,21003550,1
Position: (70.73333333,-52.7)

[Back]